sensor_id;sensor_type;location;lat;lon;timestamp;P1;durP1;ratioP1;P2;durP2;ratioP2
51692;SDS011;37777;53.066;21.638;2024-03-08T00:06:32;106.95;;;75.40;;
51692;SDS011;37777;53.066;21.638;2024-03-08T00:13:33;114.93;;;73.88;;
51692;SDS011;37777;53.066;21.638;2024-03-08T00:20:35;99.70;;;74.45;;
51692;SDS011;37777;53.066;21.638;2024-03-08T00:27:37;113.63;;;77.32;;
51692;SDS011;37777;53.066;21.638;2024-03-08T00:34:39;100.43;;;70.53;;
51692;SDS011;37777;53.066;21.638;2024-03-08T00:41:41;117.50;;;73.07;;
51692;SDS011;37777;53.066;21.638;2024-03-08T00:48:42;104.03;;;68.13;;
51692;SDS011;37777;53.066;21.638;2024-03-08T00:55:45;120.43;;;66.32;;
51692;SDS011;37777;53.066;21.638;2024-03-08T01:02:47;103.70;;;64.85;;
51692;SDS011;37777;53.066;21.638;2024-03-08T01:09:49;104.82;;;62.40;;
51692;SDS011;37777;53.066;21.638;2024-03-08T01:16:50;127.72;;;66.22;;
51692;SDS011;37777;53.066;21.638;2024-03-08T01:23:52;134.77;;;68.13;;
51692;SDS011;37777;53.066;21.638;2024-03-08T01:30:54;123.32;;;67.22;;
51692;SDS011;37777;53.066;21.638;2024-03-08T01:37:58;120.80;;;63.85;;
51692;SDS011;37777;53.066;21.638;2024-03-08T01:45:00;115.22;;;61.70;;
51692;SDS011;37777;53.066;21.638;2024-03-08T01:52:02;91.80;;;57.90;;
51692;SDS011;37777;53.066;21.638;2024-03-08T01:59:03;96.97;;;59.92;;
51692;SDS011;37777;53.066;21.638;2024-03-08T02:06:07;112.50;;;63.13;;
51692;SDS011;37777;53.066;21.638;2024-03-08T02:13:11;109.82;;;62.78;;
51692;SDS011;37777;53.066;21.638;2024-03-08T02:20:13;99.63;;;59.70;;
51692;SDS011;37777;53.066;21.638;2024-03-08T02:27:15;87.57;;;59.30;;
51692;SDS011;37777;53.066;21.638;2024-03-08T02:34:18;79.53;;;59.97;;
51692;SDS011;37777;53.066;21.638;2024-03-08T02:41:19;91.20;;;57.63;;
51692;SDS011;37777;53.066;21.638;2024-03-08T02:48:21;103.68;;;61.17;;
51692;SDS011;37777;53.066;21.638;2024-03-08T02:55:23;87.55;;;61.00;;
51692;SDS011;37777;53.066;21.638;2024-03-08T03:02:27;96.47;;;59.20;;
51692;SDS011;37777;53.066;21.638;2024-03-08T03:09:28;93.95;;;56.35;;
51692;SDS011;37777;53.066;21.638;2024-03-08T03:16:30;91.78;;;55.15;;
51692;SDS011;37777;53.066;21.638;2024-03-08T03:23:31;89.18;;;53.78;;
51692;SDS011;37777;53.066;21.638;2024-03-08T03:30:34;88.65;;;51.55;;
51692;SDS011;37777;53.066;21.638;2024-03-08T03:37:36;86.88;;;49.92;;
51692;SDS011;37777;53.066;21.638;2024-03-08T03:44:40;130.27;;;53.97;;
51692;SDS011;37777;53.066;21.638;2024-03-08T03:51:41;102.80;;;54.10;;
51692;SDS011;37777;53.066;21.638;2024-03-08T03:58:43;133.32;;;59.95;;
51692;SDS011;37777;53.066;21.638;2024-03-08T04:05:46;147.70;;;62.85;;
51692;SDS011;37777;53.066;21.638;2024-03-08T04:12:47;108.70;;;61.25;;
51692;SDS011;37777;53.066;21.638;2024-03-08T04:19:49;118.55;;;66.72;;
51692;SDS011;37777;53.066;21.638;2024-03-08T04:26:51;115.05;;;71.57;;
51692;SDS011;37777;53.066;21.638;2024-03-08T04:33:52;119.93;;;68.93;;
51692;SDS011;37777;53.066;21.638;2024-03-08T04:40:54;124.05;;;72.07;;
51692;SDS011;37777;53.066;21.638;2024-03-08T04:47:55;127.57;;;74.05;;
51692;SDS011;37777;53.066;21.638;2024-03-08T04:54:57;117.78;;;69.60;;
51692;SDS011;37777;53.066;21.638;2024-03-08T05:01:59;120.90;;;74.65;;
51692;SDS011;37777;53.066;21.638;2024-03-08T05:09:01;132.95;;;77.65;;
51692;SDS011;37777;53.066;21.638;2024-03-08T05:16:04;132.57;;;79.90;;
51692;SDS011;37777;53.066;21.638;2024-03-08T05:23:06;130.38;;;84.10;;
51692;SDS011;37777;53.066;21.638;2024-03-08T05:30:07;140.43;;;80.10;;
51692;SDS011;37777;53.066;21.638;2024-03-08T05:37:15;124.25;;;76.55;;
51692;SDS011;37777;53.066;21.638;2024-03-08T05:44:17;118.88;;;77.47;;
51692;SDS011;37777;53.066;21.638;2024-03-08T05:51:18;126.78;;;73.88;;
51692;SDS011;37777;53.066;21.638;2024-03-08T05:58:22;130.48;;;105.80;;
51692;SDS011;37777;53.066;21.638;2024-03-08T06:05:23;136.30;;;117.88;;
51692;SDS011;37777;53.066;21.638;2024-03-08T06:12:25;123.10;;;110.88;;
51692;SDS011;37777;53.066;21.638;2024-03-08T06:19:30;109.90;;;98.40;;
51692;SDS011;37777;53.066;21.638;2024-03-08T06:26:31;102.15;;;88.80;;
51692;SDS011;37777;53.066;21.638;2024-03-08T06:33:35;88.15;;;74.88;;
51692;SDS011;37777;53.066;21.638;2024-03-08T06:40:37;83.15;;;72.03;;
51692;SDS011;37777;53.066;21.638;2024-03-08T06:47:39;79.47;;;64.00;;
51692;SDS011;37777;53.066;21.638;2024-03-08T07:03:08;63.45;;;46.70;;
51692;SDS011;37777;53.066;21.638;2024-03-08T07:10:13;69.03;;;46.55;;
51692;SDS011;37777;53.066;21.638;2024-03-08T07:17:16;78.63;;;56.97;;
51692;SDS011;37777;53.066;21.638;2024-03-08T07:41:08;97.35;;;87.53;;
51692;SDS011;37777;53.066;21.638;2024-03-08T07:48:11;110.60;;;100.78;;
51692;SDS011;37777;53.066;21.638;2024-03-08T07:55:14;101.55;;;91.88;;
51692;SDS011;37777;53.066;21.638;2024-03-08T08:02:16;72.22;;;64.35;;
51692;SDS011;37777;53.066;21.638;2024-03-08T08:09:18;102.80;;;92.07;;
51692;SDS011;37777;53.066;21.638;2024-03-08T08:16:30;112.85;;;103.20;;
51692;SDS011;37777;53.066;21.638;2024-03-08T08:23:32;133.20;;;121.10;;
51692;SDS011;37777;53.066;21.638;2024-03-08T08:30:33;150.30;;;138.38;;
51692;SDS011;37777;53.066;21.638;2024-03-08T08:37:35;178.95;;;166.55;;
51692;SDS011;37777;53.066;21.638;2024-03-08T08:44:39;173.27;;;159.93;;
51692;SDS011;37777;53.066;21.638;2024-03-08T08:51:41;146.63;;;135.18;;
51692;SDS011;37777;53.066;21.638;2024-03-08T08:58:43;115.70;;;105.78;;
51692;SDS011;37777;53.066;21.638;2024-03-08T09:05:44;89.53;;;77.65;;
51692;SDS011;37777;53.066;21.638;2024-03-08T09:12:51;60.47;;;53.88;;
51692;SDS011;37777;53.066;21.638;2024-03-08T09:19:53;51.13;;;45.47;;
51692;SDS011;37777;53.066;21.638;2024-03-08T10:08:52;85.25;;;78.95;;
51692;SDS011;37777;53.066;21.638;2024-03-08T10:15:54;65.60;;;60.25;;
51692;SDS011;37777;53.066;21.638;2024-03-08T10:31:19;89.70;;;83.13;;
51692;SDS011;37777;53.066;21.638;2024-03-08T10:53:51;70.88;;;65.78;;
51692;SDS011;37777;53.066;21.638;2024-03-08T11:00:54;47.35;;;43.55;;
51692;SDS011;37777;53.066;21.638;2024-03-08T11:07:57;52.60;;;48.40;;
51692;SDS011;37777;53.066;21.638;2024-03-08T11:14:59;45.58;;;41.03;;
51692;SDS011;37777;53.066;21.638;2024-03-08T11:22:12;43.25;;;39.63;;
51692;SDS011;37777;53.066;21.638;2024-03-08T12:01:35;46.15;;;42.75;;
51692;SDS011;37777;53.066;21.638;2024-03-08T12:08:37;47.33;;;43.67;;
51692;SDS011;37777;53.066;21.638;2024-03-08T12:31:12;51.40;;;47.63;;
51692;SDS011;37777;53.066;21.638;2024-03-08T13:03:19;52.45;;;48.45;;
51692;SDS011;37777;53.066;21.638;2024-03-08T13:10:20;62.05;;;57.72;;
51692;SDS011;37777;53.066;21.638;2024-03-08T13:25:46;43.30;;;40.10;;
51692;SDS011;37777;53.066;21.638;2024-03-08T13:32:54;43.00;;;39.58;;
51692;SDS011;37777;53.066;21.638;2024-03-08T13:39:55;38.78;;;35.97;;
51692;SDS011;37777;53.066;21.638;2024-03-08T13:46:57;36.08;;;33.28;;
51692;SDS011;37777;53.066;21.638;2024-03-08T13:53:59;41.85;;;38.72;;
51692;SDS011;37777;53.066;21.638;2024-03-08T14:01:04;37.85;;;35.00;;
51692;SDS011;37777;53.066;21.638;2024-03-08T14:08:07;38.92;;;35.83;;
51692;SDS011;37777;53.066;21.638;2024-03-08T14:15:09;40.03;;;36.92;;
51692;SDS011;37777;53.066;21.638;2024-03-08T14:22:12;42.22;;;38.92;;
51692;SDS011;37777;53.066;21.638;2024-03-08T14:36:36;42.92;;;39.60;;
51692;SDS011;37777;53.066;21.638;2024-03-08T14:43:39;32.40;;;29.75;;
51692;SDS011;37777;53.066;21.638;2024-03-08T14:59:03;36.95;;;33.85;;
51692;SDS011;37777;53.066;21.638;2024-03-08T15:06:06;37.42;;;34.53;;
51692;SDS011;37777;53.066;21.638;2024-03-08T15:21:33;38.45;;;33.53;;
51692;SDS011;37777;53.066;21.638;2024-03-08T15:28:35;37.50;;;34.22;;
51692;SDS011;37777;53.066;21.638;2024-03-08T15:35:41;33.15;;;30.65;;
51692;SDS011;37777;53.066;21.638;2024-03-08T15:42:43;33.33;;;30.83;;
51692;SDS011;37777;53.066;21.638;2024-03-08T15:49:44;34.20;;;31.35;;
51692;SDS011;37777;53.066;21.638;2024-03-08T15:56:46;42.30;;;38.63;;
51692;SDS011;37777;53.066;21.638;2024-03-08T16:03:47;47.35;;;43.95;;
51692;SDS011;37777;53.066;21.638;2024-03-08T16:10:51;45.22;;;42.00;;
51692;SDS011;37777;53.066;21.638;2024-03-08T16:17:58;43.05;;;39.60;;
51692;SDS011;37777;53.066;21.638;2024-03-08T16:24:59;38.15;;;35.25;;
51692;SDS011;37777;53.066;21.638;2024-03-08T16:32:00;39.00;;;34.95;;
51692;SDS011;37777;53.066;21.638;2024-03-08T16:39:02;38.25;;;34.88;;
51692;SDS011;37777;53.066;21.638;2024-03-08T16:46:04;40.08;;;36.60;;
51692;SDS011;37777;53.066;21.638;2024-03-08T16:53:05;42.17;;;37.78;;
51692;SDS011;37777;53.066;21.638;2024-03-08T17:00:07;51.35;;;47.30;;
51692;SDS011;37777;53.066;21.638;2024-03-08T17:07:13;60.65;;;55.75;;
51692;SDS011;37777;53.066;21.638;2024-03-08T17:14:14;63.95;;;58.42;;
51692;SDS011;37777;53.066;21.638;2024-03-08T17:21:16;63.95;;;58.92;;
51692;SDS011;37777;53.066;21.638;2024-03-08T17:36:40;120.65;;;78.80;;
51692;SDS011;37777;53.066;21.638;2024-03-08T17:43:42;99.32;;;75.40;;
51692;SDS011;37777;53.066;21.638;2024-03-08T17:50:52;137.48;;;70.15;;
51692;SDS011;37777;53.066;21.638;2024-03-08T17:57:55;153.00;;;57.65;;
51692;SDS011;37777;53.066;21.638;2024-03-08T18:30:46;41.33;;;35.45;;
51692;SDS011;37777;53.066;21.638;2024-03-08T18:37:51;45.05;;;37.95;;
51692;SDS011;37777;53.066;21.638;2024-03-08T18:44:52;59.35;;;43.78;;
51692;SDS011;37777;53.066;21.638;2024-03-08T18:51:54;43.85;;;38.85;;
51692;SDS011;37777;53.066;21.638;2024-03-08T19:07:20;39.95;;;35.95;;
51692;SDS011;37777;53.066;21.638;2024-03-08T19:14:23;47.03;;;35.35;;
51692;SDS011;37777;53.066;21.638;2024-03-08T19:21:27;34.40;;;30.48;;
51692;SDS011;37777;53.066;21.638;2024-03-08T19:28:33;33.17;;;29.98;;
51692;SDS011;37777;53.066;21.638;2024-03-08T19:35:50;35.13;;;31.67;;
51692;SDS011;37777;53.066;21.638;2024-03-08T19:42:52;35.92;;;32.38;;
51692;SDS011;37777;53.066;21.638;2024-03-08T19:49:54;34.70;;;31.17;;
51692;SDS011;37777;53.066;21.638;2024-03-08T19:56:57;34.75;;;31.45;;
51692;SDS011;37777;53.066;21.638;2024-03-08T20:04:01;37.60;;;33.67;;
51692;SDS011;37777;53.066;21.638;2024-03-08T20:11:02;42.70;;;38.20;;
51692;SDS011;37777;53.066;21.638;2024-03-08T20:18:11;40.42;;;36.58;;
51692;SDS011;37777;53.066;21.638;2024-03-08T20:25:13;39.63;;;35.22;;
51692;SDS011;37777;53.066;21.638;2024-03-08T20:32:18;39.78;;;36.00;;
51692;SDS011;37777;53.066;21.638;2024-03-08T20:39:20;35.28;;;31.50;;
51692;SDS011;37777;53.066;21.638;2024-03-08T20:46:22;37.63;;;33.67;;
51692;SDS011;37777;53.066;21.638;2024-03-08T20:53:24;37.60;;;33.72;;
51692;SDS011;37777;53.066;21.638;2024-03-08T21:00:25;35.75;;;32.28;;
51692;SDS011;37777;53.066;21.638;2024-03-08T21:07:43;40.63;;;32.67;;
51692;SDS011;37777;53.066;21.638;2024-03-08T21:14:50;39.05;;;32.25;;
51692;SDS011;37777;53.066;21.638;2024-03-08T21:21:52;42.35;;;33.00;;
51692;SDS011;37777;53.066;21.638;2024-03-08T21:28:55;42.65;;;32.15;;
51692;SDS011;37777;53.066;21.638;2024-03-08T21:35:56;35.33;;;31.48;;
51692;SDS011;37777;53.066;21.638;2024-03-08T21:43:00;39.78;;;33.40;;
51692;SDS011;37777;53.066;21.638;2024-03-08T21:50:04;53.40;;;37.65;;
51692;SDS011;37777;53.066;21.638;2024-03-08T21:57:07;50.42;;;40.13;;
51692;SDS011;37777;53.066;21.638;2024-03-08T22:04:08;49.15;;;43.70;;
51692;SDS011;37777;53.066;21.638;2024-03-08T22:11:12;53.50;;;41.47;;
51692;SDS011;37777;53.066;21.638;2024-03-08T22:18:16;63.35;;;44.47;;
51692;SDS011;37777;53.066;21.638;2024-03-08T22:25:19;54.65;;;42.33;;
51692;SDS011;37777;53.066;21.638;2024-03-08T22:32:22;52.40;;;42.33;;
51692;SDS011;37777;53.066;21.638;2024-03-08T22:39:24;57.90;;;42.53;;
51692;SDS011;37777;53.066;21.638;2024-03-08T22:46:25;54.30;;;40.28;;
51692;SDS011;37777;53.066;21.638;2024-03-08T22:53:28;50.78;;;45.47;;
51692;SDS011;37777;53.066;21.638;2024-03-08T23:00:30;74.57;;;47.20;;
51692;SDS011;37777;53.066;21.638;2024-03-08T23:07:44;62.50;;;46.05;;
51692;SDS011;37777;53.066;21.638;2024-03-08T23:14:46;67.25;;;44.97;;
51692;SDS011;37777;53.066;21.638;2024-03-08T23:21:47;46.95;;;41.08;;
51692;SDS011;37777;53.066;21.638;2024-03-08T23:28:50;60.03;;;39.80;;
51692;SDS011;37777;53.066;21.638;2024-03-08T23:35:52;52.80;;;38.53;;
51692;SDS011;37777;53.066;21.638;2024-03-08T23:42:53;45.58;;;38.30;;
51692;SDS011;37777;53.066;21.638;2024-03-08T23:49:57;50.38;;;35.63;;
51692;SDS011;37777;53.066;21.638;2024-03-08T23:57:00;58.72;;;36.10;;
